Time;durP1;ratioP1;P1;durP2;ratioP2;P2;SDS_P1;SDS_P2;PMS_P1;PMS_P2;Temp;Humidity;BMP_temperature;BMP_pressure;BME280_temperature;BME280_humidity;BME280_pressure;Samples;Min_cycle;Max_cycle;Signal;HPM_P1;HPM_P2
2022/06/22 00:02:28;;;;;;;7.22;3.78;;;;;;;27.82;52.33;98282.16;4789663;30;20238;-94
2022/06/22 00:04:58;;;;;;;6.32;3.45;;;;;;;27.71;53.03;98281.97;4774420;30;20259;-95
2022/06/22 00:08:11;;;;;;;7.20;3.40;;;;;;;27.66;52.87;98287.16;4789131;30;20595;-95
2022/06/22 00:10:53;;;;;;;5.53;3.40;;;;;;;27.68;53.46;98282.38;4774016;30;20187;-94
2022/06/22 00:13:24;;;;;;;8.55;3.53;;;;;;;27.62;53.48;98278.66;4789169;30;20190;-95
2022/06/22 00:15:57;;;;;;;7.30;3.00;;;;;;;27.65;53.69;98277.41;4773401;30;20187;-93
2022/06/22 00:18:38;;;;;;;5.25;3.38;;;;;;;27.56;53.82;98284.06;4774032;30;20179;-95
2022/06/22 00:21:19;;;;;;;6.13;2.97;;;;;;;27.76;53.12;98271.38;4789016;30;20171;-93
2022/06/22 00:23:48;;;;;;;5.43;3.13;;;;;;;27.60;53.59;98274.50;4789345;30;20643;-94
2022/06/22 00:26:31;;;;;;;6.10;3.03;;;;;;;27.53;53.87;98273.69;4789018;30;20233;-91
2022/06/22 00:29:09;;;;;;;5.28;3.00;;;;;;;27.56;53.87;98273.28;4789050;30;20195;-91
2022/06/22 00:31:49;;;;;;;5.10;2.72;;;;;;;27.64;53.38;98265.00;4788632;30;20254;-92
2022/06/22 00:34:21;;;;;;;6.03;3.45;;;;;;;27.62;53.27;98272.47;4772993;30;20205;-91
2022/06/22 00:37:03;;;;;;;5.97;3.00;;;;;;;27.61;53.31;98274.31;4788575;29;20614;-92
2022/06/22 00:39:28;;;;;;;9.40;3.88;;;;;;;27.60;53.08;98266.44;4772622;30;20187;-91
2022/06/22 00:42:15;;;;;;;7.07;3.30;;;;;;;27.64;53.04;98276.59;4788586;30;20183;-93
2022/06/22 00:45:11;;;;;;;7.07;3.50;;;;;;;27.73;52.65;98274.50;4773110;30;20206;-94
2022/06/22 00:47:44;;;;;;;6.57;3.63;;;;;;;27.70;52.10;98274.94;4773012;30;20491;-94
2022/06/22 00:50:12;;;;;;;6.57;2.92;;;;;;;27.54;52.43;98272.69;4787636;30;20692;-94
2022/06/22 00:53:00;;;;;;;8.68;4.10;;;;;;;27.50;52.86;98266.88;4773220;30;20198;-95
2022/06/22 00:55:37;;;;;;;4.88;3.00;;;;;;;27.61;52.50;98262.72;4772250;30;20209;-96
2022/06/22 00:58:10;;;;;;;5.25;2.75;;;;;;;27.72;52.43;98267.47;4772654;30;20171;-95
2022/06/22 01:00:59;;;;;;;7.57;2.53;;;;;;;27.68;51.80;98268.91;4772795;30;20200;-95
2022/06/22 01:04:02;;;;;;;6.70;3.45;;;;;;;27.65;52.07;98266.63;4772993;30;20176;-94
2022/06/22 01:07:03;;;;;;;4.25;2.78;;;;;;;27.69;51.69;98273.28;4773431;30;20546;-96
2022/06/22 01:09:44;;;;;;;6.95;3.85;;;;;;;27.83;51.82;98272.22;4788632;30;20340;-95
2022/06/22 01:12:48;;;;;;;;;;;;;;;;;;;;;
2022/06/22 01:15:41;;;;;;;6.50;3.35;;;;;;;27.77;51.87;98256.88;4787032;30;20573;-95
2022/06/22 01:18:17;;;;;;;6.22;2.90;;;;;;;27.79;51.64;98266.41;4772750;30;20595;-95
2022/06/22 01:21:22;;;;;;;8.60;3.42;;;;;;;27.80;51.44;98273.47;4772564;30;20179;-95
2022/06/22 01:24:08;;;;;;;7.20;3.17;;;;;;;27.63;51.82;98276.78;4772641;30;20183;-94
2022/06/22 01:26:47;;;;;;;7.38;2.95;;;;;;;27.55;51.79;98283.22;4787737;30;20179;-96
2022/06/22 01:29:16;;;;;;;4.65;2.55;;;;;;;27.40;52.33;98294.22;4772934;30;20619;-95
2022/06/22 01:32:01;;;;;;;5.20;2.63;;;;;;;27.54;51.42;98294.22;4772740;30;20561;-94
2022/06/22 01:34:42;;;;;;;6.68;3.25;;;;;;;27.53;51.97;98301.47;4772742;30;20175;-95
2022/06/22 01:37:34;;;;;;;8.60;3.47;;;;;;;27.32;52.35;98294.41;4772163;30;20183;-95
2022/06/22 01:40:15;;;;;;;5.63;3.00;;;;;;;27.12;52.92;98296.22;4768850;30;20661;-95
2022/06/22 01:42:45;;;;;;;7.72;3.55;;;;;;;27.28;52.83;98303.09;4788456;30;20186;-92
2022/06/22 01:45:45;;;;;;;7.63;2.97;;;;;;;27.17;52.94;98307.25;4788276;30;20591;-94
2022/06/22 01:48:17;;;;;;;8.15;3.53;;;;;;;27.29;52.50;98316.34;4772847;30;20262;-91
2022/06/22 01:50:53;;;;;;;5.57;3.00;;;;;;;27.09;53.15;98310.13;4791924;30;20175;-92
2022/06/22 01:53:24;;;;;;;7.32;3.08;;;;;;;26.80;54.19;98305.09;4791673;30;20210;-94
2022/06/22 01:55:54;;;;;;;5.15;3.53;;;;;;;26.96;53.49;98315.47;4792056;30;20174;-93
2022/06/22 01:58:22;;;;;;;6.20;3.53;;;;;;;26.88;53.83;98307.59;4775824;30;20183;-93
2022/06/22 02:00:57;;;;;;;6.68;3.10;;;;;;;26.76;54.56;98304.63;4775624;30;20195;-94
2022/06/22 02:03:56;;;;;;;5.40;2.78;;;;;;;26.68;54.86;98306.66;4775704;30;20179;-95
2022/06/22 02:09:51;;;;;;;5.07;3.08;;;;;;;26.85;54.02;98302.63;4791526;30;20310;-95
2022/06/22 02:12:20;;;;;;;10.75;3.35;;;;;;;26.80;54.24;98305.09;4791410;30;20245;-94
2022/06/22 02:14:59;;;;;;;8.88;3.15;;;;;;;26.68;54.85;98301.28;4775502;30;20187;-94
2022/06/22 02:17:29;;;;;;;6.28;3.53;;;;;;;26.29;55.52;98302.00;4772998;30;20274;-92
2022/06/22 02:20:25;;;;;;;5.07;2.55;;;;;;;26.33;55.53;98308.66;4790930;30;20175;-92
2022/06/22 02:22:56;;;;;;;7.93;3.30;;;;;;;26.26;55.77;98315.81;4750520;30;20205;-92
2022/06/22 02:25:26;;;;;;;5.88;3.40;;;;;;;26.33;55.69;98307.81;4775393;30;20183;-91
2022/06/22 02:27:52;;;;;;;8.27;2.85;;;;;;;26.33;55.51;98310.50;4790683;30;20223;-93
2022/06/22 02:30:17;;;;;;;8.68;3.03;;;;;;;26.26;56.13;98312.34;4790095;30;20294;-93
2022/06/22 02:32:48;;;;;;;5.45;3.20;;;;;;;26.29;55.36;98309.22;4775240;30;20187;-95
2022/06/22 02:35:18;;;;;;;6.53;3.20;;;;;;;26.18;55.82;98310.63;4790784;30;20175;-93
2022/06/22 02:38:05;;;;;;;9.77;3.65;;;;;;;26.19;55.67;98317.66;4790822;30;20190;-95
2022/06/22 02:44:29;;;;;;;7.20;3.63;;;;;;;26.15;55.71;98314.53;4774977;30;20187;-94
2022/06/22 02:46:21;;;;;;;8.33;3.20;;;;;;;26.27;55.54;98330.94;4790527;30;20594;-92
2022/06/22 02:48:56;;;;;;;7.23;3.10;;;;;;;26.28;55.32;98329.06;4774394;30;20237;-94
2022/06/22 02:51:34;;;;;;;9.43;3.90;;;;;;;26.27;55.82;98330.09;4790728;30;20270;-94
2022/06/22 02:54:11;;;;;;;10.67;3.30;;;;;;;26.30;55.43;98327.00;4790622;30;20610;-93
2022/06/22 02:56:40;;;;;;;7.20;3.40;;;;;;;26.48;55.10;98327.28;4790358;30;20179;-93
2022/06/22 02:59:13;;;;;;;4.20;2.70;;;;;;;26.50;54.63;98326.06;4789861;29;20221;-93
2022/06/22 03:02:24;;;;;;;;;;;;;;;;;;;;;
2022/06/22 03:05:28;;;;;;;7.53;3.78;;;;;;;26.56;54.44;98329.81;4701456;30;20203;-92
2022/06/22 03:07:59;;;;;;;8.35;3.40;;;;;;;26.41;55.33;98326.44;4717885;30;20248;-93
2022/06/22 03:10:47;;;;;;;5.07;3.25;;;;;;;26.30;54.82;98325.16;4717852;30;20223;-91
2022/06/22 03:13:32;;;;;;;7.68;3.47;;;;;;;26.36;55.23;98332.44;4773624;30;20223;-93
2022/06/22 03:16:01;;;;;;;9.07;3.63;;;;;;;26.44;54.83;98326.84;4790127;30;20171;-93
2022/06/22 03:18:30;;;;;;;5.68;3.20;;;;;;;26.39;55.19;98328.50;4789950;30;20226;-93
2022/06/22 03:21:06;;;;;;;8.05;3.83;;;;;;;26.46;55.03;98329.38;4789746;30;20274;-93
2022/06/22 03:23:52;;;;;;;6.53;3.73;;;;;;;26.33;55.27;98322.06;4790087;30;20182;-91
2022/06/22 03:26:20;;;;;;;9.05;2.65;;;;;;;26.12;55.58;98331.06;4774012;30;20190;-90
2022/06/22 03:28:51;;;;;;;4.53;2.38;;;;;;;26.14;55.55;98334.38;4789473;30;20211;-93
2022/06/22 03:31:36;;;;;;;5.88;3.40;;;;;;;26.12;55.96;98331.06;4790264;30;20266;-94
2022/06/22 03:34:15;;;;;;;5.95;3.08;;;;;;;26.06;56.36;98334.50;4773542;30;20218;-92
2022/06/22 03:37:11;;;;;;;7.28;3.60;;;;;;;26.27;55.43;98335.47;4789798;30;20167;-92
2022/06/22 03:39:42;;;;;;;8.13;3.50;;;;;;;26.23;55.81;98346.59;4773721;30;20186;-94
2022/06/22 03:42:37;;;;;;;5.78;3.13;;;;;;;26.42;54.90;98338.84;4789566;30;20175;-93
2022/06/22 03:45:10;;;;;;;7.05;3.53;;;;;;;26.35;55.20;98341.50;4772101;30;20247;-92
2022/06/22 03:47:41;;;;;;;6.33;3.40;;;;;;;26.54;54.86;98348.00;4789304;30;20677;-92
2022/06/22 03:50:20;;;;;;;7.63;3.27;;;;;;;26.40;55.41;98349.81;4789493;30;20218;-91
2022/06/22 03:53:04;;;;;;;7.47;3.45;;;;;;;26.51;55.10;98356.47;4789203;30;20210;-92
2022/06/22 03:55:49;;;;;;;7.45;3.03;;;;;;;26.66;55.22;98357.13;4789479;30;20614;-95
2022/06/22 03:58:16;;;;;;;5.32;3.15;;;;;;;26.69;54.45;98354.88;4773456;30;20175;-91
2022/06/22 04:00:55;;;;;;;10.77;3.78;;;;;;;26.65;54.27;98358.19;4789327;30;20279;-93
2022/06/22 04:03:35;;;;;;;5.40;3.08;;;;;;;26.76;54.53;98352.19;4789652;30;20183;-95
2022/06/22 04:06:07;;;;;;;5.65;3.33;;;;;;;26.69;54.50;98352.19;4773375;30;20252;-92
2022/06/22 04:08:41;;;;;;;5.33;3.23;;;;;;;26.83;54.42;98336.97;4788993;30;20198;-93
2022/06/22 04:11:40;;;;;;;8.98;3.53;;;;;;;26.68;55.20;98349.69;4788599;29;20213;-93
2022/06/22 04:14:49;;;;;;;;;;;;;;;;;;;;;
2022/06/22 04:17:39;;;;;;;7.68;3.45;;;;;;;27.14;53.52;98352.53;4786600;29;20650;-94
2022/06/22 04:20:24;;;;;;;5.78;3.00;;;;;;;27.26;53.09;98346.34;4773124;30;20215;-93
2022/06/22 04:23:30;;;;;;;6.18;3.20;;;;;;;27.31;53.56;98356.50;4788857;30;20215;-94
2022/06/22 04:26:27;;;;;;;5.72;3.15;;;;;;;27.27;53.89;98352.56;4771506;30;20196;-93
2022/06/22 04:29:18;;;;;;;10.98;3.90;;;;;;;27.46;53.63;98362.56;4780973;29;20211;-94
2022/06/22 04:32:55;;;;;;;9.20;3.55;;;;;;;27.43;54.14;98361.09;4788727;30;20179;-94
2022/06/22 04:35:50;;;;;;;7.18;3.88;;;;;;;27.34;53.48;98373.06;4785951;29;20555;-93
2022/06/22 04:42:04;;;;;;;10.30;3.63;;;;;;;27.33;53.88;98370.59;4715960;30;20271;-94
2022/06/22 04:53:02;;;;;;;6.57;3.47;;;;;;;27.87;52.70;98373.94;4664829;30;20270;-94
2022/06/22 04:55:38;;;;;;;12.18;3.72;;;;;;;27.88;53.88;98375.56;4582831;31;20207;-94
2022/06/22 04:58:28;;;;;;;6.35;3.53;;;;;;;27.95;53.40;98375.59;4596968;31;20240;-93
2022/06/22 05:01:08;;;;;;;7.72;4.18;;;;;;;27.81;53.85;98382.00;4580304;31;20195;-94
2022/06/22 05:07:34;;;;;;;24.13;10.68;;;;;;;28.25;53.46;98379.47;4613648;31;20198;-95
2022/06/22 05:10:38;;;;;;;17.58;9.95;;;;;;;28.20;52.16;98379.28;4570361;31;20211;-94
2022/06/22 05:13:29;;;;;;;10.35;4.43;;;;;;;28.34;52.36;98386.31;4620063;30;20218;-93
2022/06/22 05:17:00;;;;;;;;;;;;;;;;;;;;;
2022/06/22 05:27:20;;;;;;;;;;;;;;;;;;;;;
2022/06/22 05:37:34;;;;;;;16.63;7.00;;;;;;;29.74;49.86;98380.81;4580781;31;20214;-96
2022/06/22 05:51:04;;;;;;;14.15;6.47;;;;;;;29.85;48.65;98390.13;4579363;31;20329;-92
2022/06/22 05:57:15;;;;;;;6.75;4.32;;;;;;;29.77;49.15;98405.50;4604515;31;20204;-95
2022/06/22 06:03:58;;;;;;;6.45;3.53;;;;;;;29.73;49.40;98404.31;4647600;30;20215;-92
2022/06/22 06:14:55;;;;;;;8.68;3.85;;;;;;;30.37;46.36;98395.03;4697392;30;20272;-92
2022/06/22 06:35:02;;;;;;;8.15;3.97;;;;;;;31.85;43.91;98394.25;4548925;31;20316;-92
2022/06/22 06:38:05;;;;;;;7.90;3.75;;;;;;;31.70;43.24;98391.19;4548531;31;20649;-93
2022/06/22 06:44:21;;;;;;;8.68;3.83;;;;;;;32.42;42.15;98389.06;4548013;31;20196;-93
2022/06/22 06:47:26;;;;;;;6.10;3.55;;;;;;;32.32;41.74;98388.84;4534605;31;20204;-93
2022/06/22 07:08:04;;;;;;;10.45;3.78;;;;;;;33.14;41.85;98380.31;4517493;31;20670;-94
2022/06/22 07:11:19;;;;;;;10.82;4.28;;;;;;;33.34;41.53;98374.41;4518694;31;20214;-93
2022/06/22 07:13:51;;;;;;;7.18;4.78;;;;;;;33.28;40.35;98370.78;4504557;31;20210;-91
2022/06/22 07:17:04;;;;;;;;;;;;;;;;;;;;;
2022/06/22 07:20:18;;;;;;;8.13;4.20;;;;;;;33.25;41.19;98374.00;4632627;30;20197;-94
2022/06/22 07:23:40;;;;;;;;;;;;;;;;;;;;;
2022/06/22 07:51:46;;;;;;;9.32;4.88;;;;;;;33.15;40.18;98383.88;4771501;30;20245;-95
2022/06/22 07:58:35;;;;;;;;;;;;;;;;;;;;;
2022/06/22 08:09:25;;;;;;;;;;;;;;;;;;;;;
2022/06/22 08:12:47;;;;;;;8.10;4.88;;;;;;;33.48;39.27;98399.38;4665881;30;20211;-94
2022/06/22 08:16:02;;;;;;;7.40;4.72;;;;;;;33.59;39.05;98383.06;4678636;30;20314;-94
2022/06/22 08:22:26;;;;;;;16.77;4.47;;;;;;;33.82;37.84;98387.50;4649367;30;20215;-91
2022/06/22 08:24:56;;;;;;;7.70;4.80;;;;;;;33.70;38.66;98386.78;4649422;30;20263;-93
2022/06/22 08:28:10;;;;;;;7.30;4.65;;;;;;;33.66;38.62;98383.72;4633950;30;20209;-93
2022/06/22 08:34:15;;;;;;;9.23;4.95;;;;;;;33.81;36.11;98394.00;4633612;30;20204;-92
2022/06/22 08:37:15;;;;;;;10.23;4.93;;;;;;;33.77;36.47;98393.69;4648092;30;20260;-93
2022/06/22 08:39:57;;;;;;;9.45;5.20;;;;;;;33.80;35.84;98395.91;4708289;30;20212;-93
2022/06/22 08:46:32;;;;;;;7.45;5.00;;;;;;;34.19;36.48;98387.81;4788066;29;20195;-93
2022/06/22 08:49:16;;;;;;;8.35;5.03;;;;;;;34.24;36.71;98396.88;4773546;30;20207;-91
2022/06/22 08:52:19;;;;;;;7.32;4.75;;;;;;;34.22;36.81;98385.44;4773343;30;20222;-92
2022/06/22 08:55:00;;;;;;;7.80;5.10;;;;;;;34.23;37.46;98384.34;4773001;30;20282;-94
2022/06/22 08:58:21;;;;;;;12.80;4.57;;;;;;;34.31;36.75;98383.09;4773113;30;20187;-93
2022/06/22 09:01:20;;;;;;;8.73;4.97;;;;;;;34.26;36.57;98388.47;4789358;30;20170;-92
2022/06/22 09:04:21;;;;;;;9.35;5.60;;;;;;;34.10;36.84;98370.28;4772930;30;20184;-92
2022/06/22 09:10:40;;;;;;;10.18;4.85;;;;;;;34.19;36.11;98380.50;4751885;30;20275;-93
2022/06/22 09:13:27;;;;;;;15.45;5.55;;;;;;;34.19;36.74;98375.06;4789401;30;20254;-93
2022/06/22 09:16:11;;;;;;;9.07;5.07;;;;;;;34.38;37.46;98376.38;4788493;30;20599;-92
2022/06/22 09:19:24;;;;;;;7.82;4.47;;;;;;;34.48;36.16;98368.38;4788460;30;20191;-94
2022/06/22 09:25:45;;;;;;;12.27;5.03;;;;;;;34.80;36.39;98354.09;4766989;30;20562;-93
2022/06/22 09:32:11;;;;;;;8.05;5.38;;;;;;;35.02;35.17;98336.63;4734168;30;20710;-93
2022/06/22 09:35:39;;;;;;;9.52;5.72;;;;;;;35.17;35.69;98344.97;4758637;30;20215;-93
2022/06/22 09:46:37;;;;;;;;;;;;;;;;;;;;;
2022/06/22 09:59:52;;;;;;;13.80;5.63;;;;;;;35.99;34.37;98332.88;4696984;30;20209;-93
2022/06/22 10:06:13;;;;;;;12.57;5.50;;;;;;;35.61;35.05;98326.63;4696578;30;20193;-94
2022/06/22 10:09:14;;;;;;;12.57;5.82;;;;;;;35.36;35.08;98325.53;4736459;30;20254;-94
2022/06/22 10:12:02;;;;;;;7.53;4.93;;;;;;;35.30;35.58;98327.38;4771216;30;20196;-94
2022/06/22 10:15:12;;;;;;;16.13;5.88;;;;;;;35.62;36.30;98330.97;4772499;30;20233;-94
2022/06/22 10:18:14;;;;;;;7.22;3.78;;;;;;;35.27;33.69;98321.66;4769506;30;20222;-92
2022/06/22 10:24:55;;;;;;;8.88;4.50;;;;;;;34.76;34.30;98332.00;4718529;30;20201;-95
2022/06/22 10:28:16;;;;;;;;;;;;;;;;;;;;;
2022/06/22 10:31:47;;;;;;;;;;;;;;;;;;;;;
2022/06/22 10:45:14;;;;;;;9.77;4.05;;;;;;;35.49;37.06;98315.03;4737297;30;20207;-93
2022/06/22 10:48:16;;;;;;;6.88;4.50;;;;;;;35.63;35.36;98310.81;4718889;30;20228;-94
2022/06/22 10:54:35;;;;;;;6.25;3.85;;;;;;;35.57;34.10;98325.47;4735982;30;20189;-94
2022/06/22 10:57:41;;;;;;;8.73;4.53;;;;;;;35.21;34.77;98318.06;4736070;30;20641;-93
2022/06/22 11:04:09;;;;;;;7.55;4.53;;;;;;;35.44;34.92;98314.16;4736365;30;20231;-94
2022/06/22 11:07:31;;;;;;;;;;;;;;;;;;;;;
2022/06/22 11:10:52;;;;;;;10.13;5.38;;;;;;;34.85;33.88;98316.84;4718277;30;20236;-94
2022/06/22 11:21:12;;;;;;;;;;;;;;;;;;;;;
2022/06/22 11:43:10;;;;;;;13.63;7.15;;;;;;;34.65;35.96;98302.16;4826629;29;20274;-94
2022/06/22 11:49:17;;;;;;;6.53;4.28;;;;;;;34.51;38.94;98297.09;4783146;30;20237;-94
2022/06/22 11:52:23;;;;;;;;;;;;;;;;;;;;;
2022/06/22 11:55:20;;;;;;;7.70;3.90;;;;;;;33.85;38.67;98292.66;4824606;29;20200;-94
2022/06/22 12:05:31;;;;;;;;;;;;;;;;;;;;;
2022/06/22 12:12:32;;;;;;;8.32;4.38;;;;;;;33.91;41.25;98277.25;4766858;30;20192;-94
2022/06/22 12:15:14;;;;;;;7.40;4.47;;;;;;;34.13;40.85;98277.28;4760129;30;20203;-93
2022/06/22 12:22:19;;;;;;;11.27;5.00;;;;;;;34.17;40.90;98281.16;4780164;30;20191;-94
2022/06/22 12:24:52;;;;;;;10.88;4.88;;;;;;;33.89;41.21;98282.09;4733766;30;20196;-93
2022/06/22 12:27:27;;;;;;;8.60;5.57;;;;;;;33.95;40.45;98284.66;4733638;30;20220;-93
2022/06/22 12:30:23;;;;;;;6.30;4.25;;;;;;;34.05;40.26;98280.41;4768959;30;20325;-95
2022/06/22 12:33:22;;;;;;;10.10;4.63;;;;;;;34.46;39.98;98260.84;4772163;30;20311;-94
2022/06/22 12:36:19;;;;;;;8.63;5.05;;;;;;;34.50;37.49;98259.25;4771847;30;20622;-94
2022/06/22 12:46:23;;;;;;;13.07;5.60;;;;;;;34.74;37.03;98266.09;4716394;30;20251;-94
2022/06/22 12:49:38;;;;;;;7.38;4.63;;;;;;;34.90;36.60;98272.50;4716614;30;20301;-94
2022/06/22 12:52:25;;;;;;;7.05;4.15;;;;;;;35.41;37.48;98273.78;4701343;30;20331;-94
2022/06/22 12:55:24;;;;;;;11.13;4.93;;;;;;;35.30;35.95;98270.16;4701814;30;20202;-94
2022/06/22 13:02:24;;;;;;;9.80;3.63;;;;;;;35.27;35.25;98284.31;4647275;30;20211;-94
2022/06/22 13:08:30;;;;;;;9.45;3.63;;;;;;;35.81;35.80;98273.28;4675324;30;20258;-94
2022/06/22 13:11:23;;;;;;;7.50;3.83;;;;;;;35.27;34.31;98278.88;4650537;30;20225;-93
2022/06/22 13:14:06;;;;;;;12.27;4.18;;;;;;;35.06;34.14;98264.22;4767246;30;20203;-93
2022/06/22 13:16:46;;;;;;;8.93;4.43;;;;;;;35.07;35.38;98256.88;4769051;30;20270;-93
2022/06/22 13:19:44;;;;;;;8.43;3.97;;;;;;;35.10;35.54;98256.38;4770942;29;20188;-92
2022/06/22 13:22:46;;;;;;;9.85;4.32;;;;;;;34.98;35.72;98269.31;4764250;30;20221;-94
2022/06/22 13:29:11;;;;;;;7.15;4.50;;;;;;;34.56;36.43;98269.97;4786859;30;20221;-93
2022/06/22 13:32:09;;;;;;;10.80;4.82;;;;;;;34.37;36.75;98268.63;4772384;30;20199;-93
2022/06/22 13:35:03;;;;;;;8.88;4.70;;;;;;;34.30;37.68;98278.06;4787174;29;20231;-94
2022/06/22 13:38:12;;;;;;;8.18;4.75;;;;;;;34.14;38.10;98301.53;4793383;29;20258;-94
2022/06/22 13:40:47;;;;;;;8.13;3.60;;;;;;;34.28;38.28;98301.97;4758845;30;20199;-94
2022/06/22 13:43:45;;;;;;;7.07;4.28;;;;;;;34.44;37.97;98296.47;4786062;29;20198;-94
2022/06/22 13:46:58;;;;;;;9.80;4.72;;;;;;;34.81;37.64;98301.25;4786064;30;20180;-92
2022/06/22 14:06:51;;;;;;;;;;;;;;;;;;;;;
2022/06/22 14:13:31;;;;;;;7.93;3.63;;;;;;;34.02;37.04;98306.22;4668914;30;20196;-94
2022/06/22 14:29:59;;;;;;;6.75;3.53;;;;;;;34.46;36.59;98279.91;4708346;30;20328;-94
2022/06/22 14:56:22;;;;;;;;;;;;;;;;;;;;;
2022/06/22 15:41:13;;;;;;;7.50;2.88;;;;;;;34.40;36.60;98254.53;4596830;31;20224;-93
2022/06/22 15:44:08;;;;;;;8.40;3.05;;;;;;;34.19;35.80;98266.22;4601572;30;20202;-94
2022/06/22 16:14:36;;;;;;;;;;;;;;;;;;;;;
2022/06/22 16:17:58;;;;;;;;;;;;;;;;;;;;;
2022/06/22 18:43:15;;;;;;;;;;;;;;;;;;;;;
2022/06/22 23:13:46;;;;;;;;;;;;;;;;;;;;;
2022/06/22 23:17:12;;;;;;;;;;;;;;;;;;;;;
2022/06/22 23:20:00;;;;;;;;;;;;;;;;;;;;;
2022/06/22 23:26:57;;;;;;;11.88;4.65;;;;;;;26.66;49.94;98460.13;4640652;30;20206;-94
2022/06/22 23:30:11;;;;;;;;;;;;;;;;;;;;;
2022/06/22 23:40:38;;;;;;;7.95;3.00;;;;;;;26.80;49.41;98483.41;4718281;30;20684;-93
